createdAt,value
2018-05-08T00:01:19.216Z,101277.03
2018-05-08T00:04:21.748Z,101282.89
2018-05-08T00:07:24.284Z,101285.76
2018-05-08T00:10:26.851Z,101280.83
2018-05-08T00:13:29.445Z,101286.31
2018-05-08T00:16:32.018Z,101284.20
2018-05-08T00:19:34.995Z,101284.47
2018-05-08T00:22:37.527Z,101278.61
2018-05-08T00:25:40.085Z,101275.78
2018-05-08T00:28:42.568Z,101279.96
2018-05-08T00:31:45.167Z,101276.95
2018-05-08T00:34:47.717Z,101283.02
2018-05-08T00:37:50.272Z,101273.95
2018-05-08T00:40:52.840Z,101273.36
2018-05-08T00:43:55.366Z,101275.30
2018-05-08T00:46:57.938Z,101268.72
2018-05-08T00:50:00.503Z,101270.39
2018-05-08T00:53:03.077Z,101271.09
2018-05-08T00:56:05.670Z,101270.72
2018-05-08T00:59:08.238Z,101274.36
2018-05-08T01:02:10.803Z,101267.76
2018-05-08T03:41:54.148Z,101230.75
2018-05-08T03:45:27.891Z,101225.77
2018-05-08T06:26:11.408Z,101170.15
2018-05-08T06:29:13.882Z,101171.05
2018-05-08T06:32:16.416Z,101170.70
2018-05-08T06:35:18.914Z,101164.84
2018-05-08T06:38:21.419Z,101170.64
2018-05-08T06:41:23.925Z,101167.64
2018-05-08T06:44:26.500Z,101162.82
2018-05-08T06:47:30.105Z,101156.33
2018-05-08T06:50:32.646Z,101153.11
2018-05-08T06:53:41.886Z,101157.08
2018-05-08T06:56:44.413Z,101144.03
2018-05-08T06:59:46.939Z,101146.34
2018-05-08T07:02:49.478Z,101148.02
2018-05-08T07:05:51.998Z,101148.16
2018-05-08T07:09:57.636Z,101148.70
2018-05-08T07:13:00.222Z,101149.13
2018-05-08T07:16:02.944Z,101144.75
2018-05-08T07:19:05.300Z,101146.30
2018-05-08T07:22:07.859Z,101140.11
2018-05-08T07:25:10.375Z,101139.63
2018-05-08T07:28:13.113Z,101144.64
2018-05-08T07:31:15.627Z,101137.73
2018-05-08T07:34:18.150Z,101141.30
2018-05-08T07:37:20.674Z,101137.12
2018-05-08T07:40:23.191Z,101130.64
2018-05-08T07:43:25.706Z,101133.91
2018-05-08T07:46:28.219Z,101130.90
2018-05-08T07:49:30.742Z,101136.22
2018-05-08T07:52:33.269Z,101141.28
2018-05-08T07:55:35.741Z,101138.54
2018-05-08T07:58:38.345Z,101130.14
2018-05-08T08:01:40.866Z,101130.65
2018-05-08T08:04:43.365Z,101128.54
2018-05-08T08:07:47.091Z,101124.55
2018-05-08T08:10:50.352Z,101122.08
2018-05-08T08:13:52.876Z,101121.77
2018-05-08T08:16:55.371Z,101130.70
2018-05-08T08:19:57.854Z,101120.70
2018-05-08T08:23:00.348Z,101119.03
2018-05-08T08:26:03.109Z,101117.89
2018-05-08T08:29:05.649Z,101110.52
2018-05-08T08:32:09.226Z,101110.52
2018-05-08T08:35:11.738Z,101114.89
2018-05-08T08:38:14.328Z,101115.47
2018-05-08T08:41:16.865Z,101103.02
2018-05-08T08:44:19.367Z,101106.91
2018-05-08T08:47:21.868Z,101100.88
2018-05-08T08:50:24.430Z,101091.95
2018-05-08T08:53:26.924Z,101100.12
2018-05-08T08:56:29.421Z,101101.03
2018-05-08T08:59:31.909Z,101097.58
2018-05-08T09:02:34.392Z,101095.97
2018-05-08T09:05:36.898Z,101095.52
2018-05-08T09:08:39.896Z,101089.67
2018-05-08T09:11:42.421Z,101090.25
2018-05-08T09:14:44.936Z,101085.41
2018-05-08T09:17:48.360Z,101078.18
2018-05-08T09:20:50.868Z,101074.23
2018-05-08T09:23:53.378Z,101075.22
2018-05-08T09:26:55.886Z,101076.11
2018-05-08T09:29:58.446Z,101068.05
2018-05-08T09:33:00.985Z,101072.38
2018-05-08T09:36:03.443Z,101065.78
2018-05-08T09:39:05.953Z,101066.14
2018-05-08T09:42:08.466Z,101058.90
2018-05-08T09:45:10.955Z,101062.44
2018-05-08T09:48:13.438Z,101058.34
2018-05-08T09:51:16.029Z,101056.28
2018-05-08T09:54:18.565Z,101061.28
2018-05-08T09:57:21.060Z,101047.55
2018-05-08T10:00:23.556Z,101050.59
2018-05-08T10:03:26.101Z,101039.70
2018-05-08T10:06:28.627Z,101038.84
2018-05-08T10:09:31.115Z,101036.52
2018-05-08T10:12:33.629Z,101035.81
2018-05-08T10:15:36.168Z,101035.38
2018-05-08T10:18:38.703Z,101026.42
2018-05-08T10:21:41.204Z,101021.77
2018-05-08T10:24:43.700Z,101022.06
2018-05-08T10:27:46.212Z,101012.69
2018-05-08T10:30:48.745Z,101017.52
2018-05-08T10:33:51.231Z,101011.72
2018-05-08T10:36:53.752Z,100999.71
2018-05-08T10:39:56.292Z,100996.53
2018-05-08T10:42:58.793Z,100996.34
2018-05-08T10:46:01.312Z,100997.40
2018-05-08T10:49:03.821Z,100987.00
2018-05-08T10:52:06.315Z,100990.17
2018-05-08T10:55:09.001Z,100985.14
2018-05-08T10:58:11.486Z,100977.92
2018-05-08T11:01:13.990Z,100975.66
2018-05-08T11:04:16.457Z,100972.63
2018-05-08T11:07:18.998Z,100975.73
2018-05-08T11:10:21.511Z,100969.89
2018-05-08T11:13:24.093Z,100966.14
2018-05-08T11:16:26.579Z,100962.03
2018-05-08T11:19:29.091Z,100954.34
2018-05-08T11:22:31.572Z,100941.38
2018-05-08T11:25:34.085Z,100933.53
2018-05-08T11:28:36.571Z,100939.61
2018-05-08T11:31:39.066Z,100933.30
2018-05-08T11:34:41.544Z,100922.36
2018-05-08T11:37:44.037Z,100928.19
2018-05-08T11:40:46.540Z,100914.91
2018-05-08T11:43:49.041Z,100909.28
2018-05-08T11:46:51.554Z,100903.03
2018-05-08T11:49:54.130Z,100898.75
2018-05-08T11:52:56.647Z,100895.95
2018-05-08T11:55:59.151Z,100895.81
2018-05-08T11:59:01.709Z,100887.48
2018-05-08T12:02:04.335Z,100881.75
2018-05-08T12:05:06.823Z,100878.78
2018-05-08T12:08:09.820Z,100872.19
2018-05-08T12:11:12.873Z,100869.86
2018-05-08T12:14:15.376Z,100868.86
2018-05-08T12:17:19.079Z,100860.86
2018-05-08T12:20:21.568Z,100858.36
2018-05-08T12:23:24.103Z,100862.67
2018-05-08T12:26:26.601Z,100852.05
2018-05-08T12:29:29.142Z,100850.47
2018-05-08T12:32:31.661Z,100843.41
2018-05-08T12:35:34.185Z,100834.19
2018-05-08T12:38:36.698Z,100836.03
2018-05-08T12:41:39.301Z,100834.03
2018-05-08T12:44:41.863Z,100831.41
2018-05-08T12:47:44.422Z,100832.53
2018-05-08T12:50:46.947Z,100823.87
2018-05-08T12:53:49.607Z,100817.02
2018-05-08T12:56:53.025Z,100816.27
2018-05-08T12:59:55.605Z,100811.20
2018-05-08T13:02:58.217Z,100804.56
2018-05-08T13:06:00.868Z,100802.23
2018-05-08T13:09:03.368Z,100797.63
2018-05-08T13:12:05.908Z,100793.89
2018-05-08T13:15:08.438Z,100796.44
2018-05-08T13:18:12.184Z,100782.59
2018-05-08T13:21:14.785Z,100774.29
2018-05-08T13:24:17.322Z,100790.63
2018-05-08T13:27:19.823Z,100786.42
2018-05-08T13:30:22.342Z,100784.84
2018-05-08T13:33:24.902Z,100777.01
2018-05-08T13:36:27.392Z,100768.27
2018-05-08T13:39:29.903Z,100769.95
2018-05-08T13:42:32.410Z,100769.94
2018-05-08T13:45:34.982Z,100773.97
2018-05-08T13:48:37.485Z,100762.87
2018-05-08T13:51:40.843Z,100763.83
2018-05-08T13:54:43.353Z,100751.46
2018-05-08T13:57:45.847Z,100748.05
2018-05-08T14:00:48.439Z,100749.44
2018-05-08T14:03:50.888Z,100742.17
2018-05-08T14:06:53.439Z,100746.22
2018-05-08T14:09:55.990Z,100742.77
2018-05-08T14:12:58.570Z,100733.81
2018-05-08T14:16:01.108Z,100732.97
2018-05-08T14:19:03.602Z,100735.33
2018-05-08T14:22:06.129Z,100736.22
2018-05-08T14:25:08.682Z,100731.53
2018-05-08T14:28:11.224Z,100718.89
2018-05-08T14:31:13.773Z,100718.25
2018-05-08T14:34:16.305Z,100720.28
2018-05-08T14:37:18.824Z,100706.63
2018-05-08T14:40:21.570Z,100708.01
2018-05-08T14:43:24.912Z,100700.66
2018-05-08T14:46:27.442Z,100695.69
2018-05-08T14:49:30.098Z,100687.86
2018-05-08T14:52:32.643Z,100683.09
2018-05-08T14:55:35.161Z,100686.41
2018-05-08T14:58:37.662Z,100686.49
2018-05-08T15:01:40.232Z,100684.30
2018-05-08T15:04:42.865Z,100676.25
2018-05-08T15:07:45.375Z,100684.20
2018-05-08T15:10:47.896Z,100680.50
2018-05-08T15:13:50.384Z,100679.52
2018-05-08T15:16:52.951Z,100676.91
2018-05-08T15:19:55.528Z,100673.92
2018-05-08T15:22:58.064Z,100671.52
2018-05-08T15:26:00.644Z,100668.45
2018-05-08T15:29:03.266Z,100658.34
2018-05-08T15:32:05.881Z,100663.28
2018-05-08T15:35:08.501Z,100666.45
2018-05-08T15:38:11.027Z,100668.86
2018-05-08T15:41:13.587Z,100662.52
2018-05-08T15:44:16.084Z,100656.73
2018-05-08T15:47:18.606Z,100656.86
2018-05-08T15:50:21.197Z,100650.36
2018-05-08T15:53:23.787Z,100643.76
2018-05-08T15:56:26.338Z,100633.66
2018-05-08T15:59:28.857Z,100637.02
2018-05-08T16:02:31.396Z,100634.25
2018-05-08T16:05:33.911Z,100636.22
2018-05-08T16:08:36.462Z,100627.41
2018-05-08T16:11:39.077Z,100620.99
2018-05-08T16:14:41.614Z,100619.14
2018-05-08T16:17:44.156Z,100624.77
2018-05-08T16:20:46.747Z,100621.64
2018-05-08T16:23:49.266Z,100624.21
2018-05-08T16:26:51.785Z,100619.87
2018-05-08T16:29:54.350Z,100617.63
2018-05-08T16:32:56.980Z,100620.37
2018-05-08T16:35:59.506Z,100617.67
2018-05-08T16:39:02.039Z,100615.75
2018-05-08T16:42:04.561Z,100606.56
2018-05-08T16:45:07.070Z,100611.80
2018-05-08T16:48:11.976Z,100610.72
2018-05-08T16:51:14.536Z,100609.38
2018-05-08T16:54:17.049Z,100602.25
2018-05-08T16:57:19.596Z,100606.45
2018-05-08T17:00:23.105Z,100600.94
2018-05-08T17:03:27.153Z,100605.74
2018-05-08T17:06:30.911Z,100600.25
2018-05-08T17:09:58.733Z,100601.94
2018-05-08T17:13:01.476Z,100604.62
2018-05-08T17:16:04.851Z,100601.08
2018-05-08T17:19:08.782Z,100602.41
2018-05-08T17:22:11.643Z,100597.24
2018-05-08T17:25:14.291Z,100596.79
2018-05-08T17:28:17.037Z,100588.25
2018-05-08T17:31:20.834Z,100587.66
2018-05-08T17:34:26.603Z,100586.02
2018-05-08T17:37:29.319Z,100584.28
2018-05-08T17:40:34.683Z,100584.97
2018-05-08T17:43:37.331Z,100586.36
2018-05-08T17:46:42.601Z,100584.05
2018-05-08T17:49:46.653Z,100583.31
2018-05-08T17:52:50.151Z,100588.15
2018-05-08T17:55:53.961Z,100589.77
2018-05-08T17:58:57.549Z,100590.30
2018-05-08T18:02:00.156Z,100602.87
2018-05-08T18:05:02.784Z,100590.84
2018-05-08T18:08:05.491Z,100589.02
2018-05-08T18:11:08.733Z,100596.14
2018-05-08T18:14:11.365Z,100586.90
2018-05-08T18:17:15.825Z,100588.38
2018-05-08T18:20:20.962Z,100589.89
2018-05-08T18:26:34.717Z,100589.98
2018-05-08T18:29:37.390Z,100584.46
2018-05-08T18:32:40.657Z,100585.41
2018-05-08T18:35:43.958Z,100594.10
2018-05-08T18:38:48.142Z,100591.07
2018-05-08T18:41:50.812Z,100596.36
2018-05-08T18:44:53.556Z,100594.13
2018-05-08T18:47:56.895Z,100598.06
2018-05-08T18:51:00.512Z,100594.47
2018-05-08T18:54:03.213Z,100601.80
2018-05-08T18:57:06.700Z,100603.47
2018-05-08T19:00:15.781Z,100605.95
2018-05-08T19:03:19.218Z,100610.22
2018-05-08T19:06:21.958Z,100616.19
2018-05-08T19:09:25.107Z,100616.98
2018-05-08T19:12:27.834Z,100612.86
2018-05-08T19:15:36.439Z,100614.52
2018-05-08T19:18:44.994Z,100620.94
2018-05-08T19:21:48.066Z,100616.01
2018-05-08T19:24:50.718Z,100613.77
2018-05-08T19:27:53.567Z,100619.47
2018-05-08T19:30:56.284Z,100623.67
2018-05-08T19:33:59.031Z,100623.56
2018-05-08T19:37:07.153Z,100619.85
2018-05-08T19:40:09.812Z,100618.86
2018-05-08T19:43:13.339Z,100614.54
2018-05-08T19:46:16.176Z,100612.17
2018-05-08T19:49:18.985Z,100619.66
2018-05-08T19:52:21.961Z,100615.00
2018-05-08T19:55:24.676Z,100609.08
2018-05-08T19:58:27.770Z,100609.72
2018-05-08T20:01:31.396Z,100601.39
2018-05-08T20:04:34.944Z,100605.09
2018-05-08T20:07:38.400Z,100606.75
2018-05-08T20:10:41.268Z,100613.23
2018-05-08T20:13:44.006Z,100616.40
2018-05-08T20:16:46.612Z,100612.23
2018-05-08T20:19:49.261Z,100609.38
2018-05-08T20:22:51.912Z,100612.67
2018-05-08T20:25:54.964Z,100614.80
2018-05-08T20:28:57.577Z,100610.98
2018-05-08T20:32:00.113Z,100608.55
2018-05-08T20:35:02.741Z,100604.92
2018-05-08T20:38:05.376Z,100610.73
2018-05-08T20:41:08.048Z,100604.89
2018-05-08T20:44:10.800Z,100602.80
2018-05-08T20:47:13.769Z,100604.67
2018-05-08T20:50:16.580Z,100610.02
2018-05-08T20:53:19.120Z,100611.42
2018-05-08T21:00:12.267Z,100599.78
2018-05-08T21:03:15.022Z,100604.30
2018-05-08T21:06:17.792Z,100604.84
2018-05-08T21:09:20.945Z,100604.14
2018-05-08T21:12:24.145Z,100601.27
2018-05-08T21:15:27.122Z,100599.42
2018-05-08T21:18:30.911Z,100601.60
2018-05-08T21:21:33.587Z,100598.48
2018-05-08T21:24:36.165Z,100598.20
2018-05-08T21:27:44.061Z,100606.50
2018-05-08T21:30:52.244Z,100599.92
2018-05-08T21:33:54.988Z,100595.45
2018-05-08T21:36:57.634Z,100602.58
2018-05-08T21:40:00.350Z,100594.62
2018-05-08T21:43:03.050Z,100600.50
2018-05-08T21:46:05.654Z,100599.64
2018-05-08T21:49:09.898Z,100599.95
2018-05-08T21:52:12.600Z,100595.63
2018-05-08T21:55:15.144Z,100600.72
2018-05-08T21:58:17.647Z,100598.79
2018-05-08T22:01:21.072Z,100602.70
2018-05-08T22:04:23.668Z,100596.13
2018-05-08T22:07:26.264Z,100601.59
2018-05-08T22:10:28.876Z,100603.28
2018-05-08T22:13:31.453Z,100600.41
2018-05-08T22:16:34.041Z,100590.82
2018-05-08T22:19:36.649Z,100596.11
2018-05-08T22:22:39.251Z,100592.55
2018-05-08T22:25:41.844Z,100593.27
2018-05-08T22:28:44.425Z,100598.08
2018-05-08T22:31:47.076Z,100589.92
2018-05-08T22:34:49.707Z,100588.80
2018-05-08T22:37:52.267Z,100589.59
2018-05-08T22:40:54.840Z,100596.83
2018-05-08T22:43:57.402Z,100583.48
2018-05-08T22:46:59.985Z,100587.72
2018-05-08T22:50:02.574Z,100588.00
2018-05-08T22:53:05.917Z,100592.20
2018-05-08T22:56:08.506Z,100583.73
2018-05-08T22:59:11.084Z,100583.91
